Clear Sky Current Weather (METAR) For Manchester Airport

All times on the weather descriptions are local

Observed at 00:20 - (9 mins ago)

Clear Sky

4°C

Clear Sky
Clouds:
Wind: 080° at 05 knots, varying from 030° to 120
Visibility: Greater than 10km
QNH: 1030
Dew Point: 1°C
Runway in Use: Runways 05L/R

Sunrise Today: 06:00
Sunset Today: 20:16

Forecast Weather (TAF) For Manchester Airport

Issued at 01:00 - (12 days ago)


Runway in Use: Likely Runways 23L/R

Forecast valid until 01:00 on Thursday

METAR/TAF RAW METAR / TAF

EGCC 182320Z 08005KT 030V120 CAVOK 04/01 Q1030 NOSIG

Weather Widget

Put weather from any of our airports on your website with our weather widget.

Find Another Search

Airport Search


Please Wait Please Wait - Loading
Close
Close

Login

Username:

Password:

Remember Me:

Remember me on this computer

Forgotten your password? Get a reset password sent to your registered e-mail address

Close

User Private Message

Subject:

Message: